sensor_id;sensor_type;location;lat;lon;timestamp;temperature;humidity
26049;DHT22;13822;51.568;5.086;2022-07-01T05:26:51;13.60;99.90
26049;DHT22;13822;51.568;5.086;2022-07-01T05:31:54;13.70;99.90
26049;DHT22;13822;51.568;5.086;2022-07-01T05:36:56;13.80;99.90
26049;DHT22;13822;51.568;5.086;2022-07-01T05:41:58;13.90;99.90
26049;DHT22;13822;51.568;5.086;2022-07-01T05:47:00;13.90;99.90
26049;DHT22;13822;51.568;5.086;2022-07-01T05:52:02;13.90;99.90
26049;DHT22;13822;51.568;5.086;2022-07-01T05:57:04;14.00;99.90
26049;DHT22;13822;51.568;5.086;2022-07-01T06:02:10;13.90;99.90
26049;DHT22;13822;51.568;5.086;2022-07-01T06:07:11;14.00;99.90
26049;DHT22;13822;51.568;5.086;2022-07-01T06:12:13;14.00;99.90
26049;DHT22;13822;51.568;5.086;2022-07-01T06:17:16;14.00;99.90
26049;DHT22;13822;51.568;5.086;2022-07-01T06:22:18;14.00;99.90
26049;DHT22;13822;51.568;5.086;2022-07-01T06:27:22;14.10;99.90
26049;DHT22;13822;51.568;5.086;2022-07-01T06:32:25;14.20;99.90
26049;DHT22;13822;51.568;5.086;2022-07-01T06:37:27;14.20;99.90
26049;DHT22;13822;51.568;5.086;2022-07-01T06:42:29;14.30;99.90
26049;DHT22;13822;51.568;5.086;2022-07-01T06:47:31;14.40;99.90
26049;DHT22;13822;51.568;5.086;2022-07-01T06:52:32;14.50;99.90
26049;DHT22;13822;51.568;5.086;2022-07-01T06:57:35;14.70;99.90
26049;DHT22;13822;51.568;5.086;2022-07-01T07:02:38;14.80;99.90
26049;DHT22;13822;51.568;5.086;2022-07-01T07:07:41;14.90;99.90
26049;DHT22;13822;51.568;5.086;2022-07-01T07:12:43;15.00;99.90
26049;DHT22;13822;51.568;5.086;2022-07-01T07:17:44;15.00;99.90
26049;DHT22;13822;51.568;5.086;2022-07-01T07:22:49;15.10;99.90
26049;DHT22;13822;51.568;5.086;2022-07-01T07:27:54;15.20;99.90
26049;DHT22;13822;51.568;5.086;2022-07-01T07:32:56;15.30;99.90
26049;DHT22;13822;51.568;5.086;2022-07-01T07:38:02;15.50;99.90
26049;DHT22;13822;51.568;5.086;2022-07-01T07:43:04;15.60;99.90
26049;DHT22;13822;51.568;5.086;2022-07-01T07:48:08;15.70;99.90
26049;DHT22;13822;51.568;5.086;2022-07-01T07:53:11;15.80;99.90
26049;DHT22;13822;51.568;5.086;2022-07-01T07:58:13;15.90;99.90
26049;DHT22;13822;51.568;5.086;2022-07-01T08:03:15;16.00;99.90
26049;DHT22;13822;51.568;5.086;2022-07-01T08:08:18;16.10;99.90
26049;DHT22;13822;51.568;5.086;2022-07-01T08:13:23;16.30;99.90
26049;DHT22;13822;51.568;5.086;2022-07-01T08:18:26;16.40;99.90
26049;DHT22;13822;51.568;5.086;2022-07-01T08:23:27;16.40;99.90
26049;DHT22;13822;51.568;5.086;2022-07-01T08:28:29;16.50;99.90
26049;DHT22;13822;51.568;5.086;2022-07-01T08:33:31;16.70;99.90
26049;DHT22;13822;51.568;5.086;2022-07-01T08:38:34;16.70;99.90
26049;DHT22;13822;51.568;5.086;2022-07-01T08:43:36;16.80;99.90
26049;DHT22;13822;51.568;5.086;2022-07-01T08:48:43;16.80;99.90
26049;DHT22;13822;51.568;5.086;2022-07-01T08:53:46;16.90;99.90
26049;DHT22;13822;51.568;5.086;2022-07-01T08:58:48;16.90;99.90
26049;DHT22;13822;51.568;5.086;2022-07-01T09:03:55;17.00;99.90
26049;DHT22;13822;51.568;5.086;2022-07-01T09:09:09;17.20;99.90
26049;DHT22;13822;51.568;5.086;2022-07-01T09:14:15;17.30;99.90
26049;DHT22;13822;51.568;5.086;2022-07-01T09:19:20;17.50;99.90
26049;DHT22;13822;51.568;5.086;2022-07-01T09:24:30;17.60;99.90
26049;DHT22;13822;51.568;5.086;2022-07-01T09:29:34;17.70;99.90
26049;DHT22;13822;51.568;5.086;2022-07-01T09:34:41;17.90;99.90
26049;DHT22;13822;51.568;5.086;2022-07-01T09:44:57;18.40;99.90
26049;DHT22;13822;51.568;5.086;2022-07-01T09:50:05;18.60;99.90
26049;DHT22;13822;51.568;5.086;2022-07-01T09:55:08;18.80;99.90
26049;DHT22;13822;51.568;5.086;2022-07-01T10:00:10;19.00;99.90
26049;DHT22;13822;51.568;5.086;2022-07-01T10:05:13;19.00;99.90
26049;DHT22;13822;51.568;5.086;2022-07-01T10:15:28;19.50;99.90
26049;DHT22;13822;51.568;5.086;2022-07-01T10:20:30;19.80;99.90
26049;DHT22;13822;51.568;5.086;2022-07-01T10:25:34;19.90;99.90
26049;DHT22;13822;51.568;5.086;2022-07-01T10:36:13;20.30;99.90
26049;DHT22;13822;51.568;5.086;2022-07-01T10:52:09;20.50;99.90
26049;DHT22;13822;51.568;5.086;2022-07-01T10:57:28;20.80;99.90
26049;DHT22;13822;51.568;5.086;2022-07-01T11:02:33;20.90;99.90
26049;DHT22;13822;51.568;5.086;2022-07-01T11:07:37;21.30;99.40
26049;DHT22;13822;51.568;5.086;2022-07-01T11:12:41;21.40;99.90
26049;DHT22;13822;51.568;5.086;2022-07-01T11:17:46;21.20;99.90
26049;DHT22;13822;51.568;5.086;2022-07-01T11:22:52;20.80;99.90
26049;DHT22;13822;51.568;5.086;2022-07-01T11:28:42;20.40;99.90
26049;DHT22;13822;51.568;5.086;2022-07-01T11:33:49;20.10;99.90
26049;DHT22;13822;51.568;5.086;2022-07-01T11:38:51;20.00;99.90
26049;DHT22;13822;51.568;5.086;2022-07-01T11:44:11;19.90;99.90
26049;DHT22;13822;51.568;5.086;2022-07-01T11:49:13;19.90;99.90
26049;DHT22;13822;51.568;5.086;2022-07-01T11:54:21;20.50;99.90
26049;DHT22;13822;51.568;5.086;2022-07-01T11:59:33;21.30;99.90
26049;DHT22;13822;51.568;5.086;2022-07-01T12:04:35;21.70;99.80
26049;DHT22;13822;51.568;5.086;2022-07-01T12:09:38;21.80;99.90
26049;DHT22;13822;51.568;5.086;2022-07-01T12:14:48;21.60;99.90
26049;DHT22;13822;51.568;5.086;2022-07-01T12:19:51;21.90;99.90
26049;DHT22;13822;51.568;5.086;2022-07-01T12:25:07;22.40;97.40
26049;DHT22;13822;51.568;5.086;2022-07-01T12:30:22;22.60;99.90
26049;DHT22;13822;51.568;5.086;2022-07-01T12:35:25;22.80;78.40
26049;DHT22;13822;51.568;5.086;2022-07-01T12:40:36;23.20;99.30
26049;DHT22;13822;51.568;5.086;2022-07-01T12:45:39;23.70;99.90
26049;DHT22;13822;51.568;5.086;2022-07-01T12:50:42;24.10;99.90
26049;DHT22;13822;51.568;5.086;2022-07-01T12:55:49;24.20;99.90
26049;DHT22;13822;51.568;5.086;2022-07-01T13:01:00;24.20;85.30
26049;DHT22;13822;51.568;5.086;2022-07-01T13:06:02;24.40;69.30
26049;DHT22;13822;51.568;5.086;2022-07-01T13:11:04;24.50;57.80
26049;DHT22;13822;51.568;5.086;2022-07-01T13:16:07;24.60;64.20
26049;DHT22;13822;51.568;5.086;2022-07-01T13:21:10;24.90;73.70
26049;DHT22;13822;51.568;5.086;2022-07-01T13:26:12;25.30;64.40
26049;DHT22;13822;51.568;5.086;2022-07-01T13:31:14;25.50;47.10
26049;DHT22;13822;51.568;5.086;2022-07-01T13:36:16;25.40;67.80
26049;DHT22;13822;51.568;5.086;2022-07-01T13:41:18;24.80;50.00
26049;DHT22;13822;51.568;5.086;2022-07-01T13:46:32;24.20;58.30
26049;DHT22;13822;51.568;5.086;2022-07-01T13:51:35;23.40;60.80
26049;DHT22;13822;51.568;5.086;2022-07-01T13:56:37;22.80;82.90
26049;DHT22;13822;51.568;5.086;2022-07-01T14:01:39;22.40;64.50
26049;DHT22;13822;51.568;5.086;2022-07-01T14:06:41;22.30;87.60
26049;DHT22;13822;51.568;5.086;2022-07-01T14:11:43;22.50;99.90
26049;DHT22;13822;51.568;5.086;2022-07-01T14:16:46;22.50;98.30
26049;DHT22;13822;51.568;5.086;2022-07-01T14:21:48;22.30;99.90
26049;DHT22;13822;51.568;5.086;2022-07-01T14:26:50;21.80;99.90
26049;DHT22;13822;51.568;5.086;2022-07-01T14:31:52;21.40;99.90
26049;DHT22;13822;51.568;5.086;2022-07-01T14:36:54;21.00;99.90
26049;DHT22;13822;51.568;5.086;2022-07-01T14:41:56;20.70;99.90
26049;DHT22;13822;51.568;5.086;2022-07-01T14:46:59;20.40;99.90
26049;DHT22;13822;51.568;5.086;2022-07-01T14:52:02;20.00;99.90
26049;DHT22;13822;51.568;5.086;2022-07-01T14:57:04;19.80;99.90
26049;DHT22;13822;51.568;5.086;2022-07-01T15:02:07;19.60;99.90
26049;DHT22;13822;51.568;5.086;2022-07-01T15:07:09;19.40;99.90
26049;DHT22;13822;51.568;5.086;2022-07-01T15:12:11;19.30;99.90
26049;DHT22;13822;51.568;5.086;2022-07-01T15:17:14;19.10;99.90
26049;DHT22;13822;51.568;5.086;2022-07-01T15:22:16;19.00;99.90
26049;DHT22;13822;51.568;5.086;2022-07-01T15:27:19;19.00;99.90
26049;DHT22;13822;51.568;5.086;2022-07-01T15:32:21;19.10;99.90
26049;DHT22;13822;51.568;5.086;2022-07-01T15:37:24;19.30;99.90
26049;DHT22;13822;51.568;5.086;2022-07-01T15:42:26;19.60;99.90
26049;DHT22;13822;51.568;5.086;2022-07-01T15:47:28;19.90;99.90
26049;DHT22;13822;51.568;5.086;2022-07-01T15:52:49;20.10;99.90
26049;DHT22;13822;51.568;5.086;2022-07-01T15:57:52;20.00;99.90
26049;DHT22;13822;51.568;5.086;2022-07-01T16:02:55;20.10;99.90
26049;DHT22;13822;51.568;5.086;2022-07-01T16:07:59;20.10;99.90
26049;DHT22;13822;51.568;5.086;2022-07-01T16:13:02;20.10;99.90
26049;DHT22;13822;51.568;5.086;2022-07-01T16:18:08;20.20;99.90
26049;DHT22;13822;51.568;5.086;2022-07-01T16:23:13;20.30;99.90
26049;DHT22;13822;51.568;5.086;2022-07-01T16:28:26;20.20;99.90
26049;DHT22;13822;51.568;5.086;2022-07-01T16:33:29;20.20;99.90
26049;DHT22;13822;51.568;5.086;2022-07-01T16:38:38;20.20;99.90
26049;DHT22;13822;51.568;5.086;2022-07-01T16:43:46;20.10;99.90
26049;DHT22;13822;51.568;5.086;2022-07-01T16:48:49;20.00;99.90
26049;DHT22;13822;51.568;5.086;2022-07-01T16:53:51;19.90;99.90
26049;DHT22;13822;51.568;5.086;2022-07-01T16:58:59;19.70;99.90
26049;DHT22;13822;51.568;5.086;2022-07-01T17:04:03;19.60;99.90
26049;DHT22;13822;51.568;5.086;2022-07-01T17:09:06;19.60;99.90
26049;DHT22;13822;51.568;5.086;2022-07-01T17:14:09;19.70;99.90
26049;DHT22;13822;51.568;5.086;2022-07-01T17:19:11;19.90;99.90
26049;DHT22;13822;51.568;5.086;2022-07-01T17:24:13;20.00;99.90
26049;DHT22;13822;51.568;5.086;2022-07-01T17:29:18;20.00;99.90
26049;DHT22;13822;51.568;5.086;2022-07-01T17:34:25;20.00;99.90
26049;DHT22;13822;51.568;5.086;2022-07-01T17:39:29;20.00;99.90
26049;DHT22;13822;51.568;5.086;2022-07-01T17:44:32;20.00;99.90
26049;DHT22;13822;51.568;5.086;2022-07-01T17:49:36;20.00;99.90
26049;DHT22;13822;51.568;5.086;2022-07-01T17:54:39;20.00;99.90
26049;DHT22;13822;51.568;5.086;2022-07-01T17:59:42;20.00;99.90
26049;DHT22;13822;51.568;5.086;2022-07-01T18:04:44;20.00;99.90
26049;DHT22;13822;51.568;5.086;2022-07-01T18:09:49;20.00;99.90
26049;DHT22;13822;51.568;5.086;2022-07-01T18:25:20;20.00;99.90
26049;DHT22;13822;51.568;5.086;2022-07-01T18:30:24;19.90;99.90
26049;DHT22;13822;51.568;5.086;2022-07-01T18:35:31;19.90;99.90
26049;DHT22;13822;51.568;5.086;2022-07-01T18:40:35;19.80;99.90
26049;DHT22;13822;51.568;5.086;2022-07-01T18:45:38;19.80;99.90
26049;DHT22;13822;51.568;5.086;2022-07-01T18:50:40;19.70;99.90
26049;DHT22;13822;51.568;5.086;2022-07-01T18:55:43;19.70;99.90
26049;DHT22;13822;51.568;5.086;2022-07-01T19:00:45;19.70;99.90
26049;DHT22;13822;51.568;5.086;2022-07-01T19:05:48;19.70;99.90
26049;DHT22;13822;51.568;5.086;2022-07-01T19:10:50;19.60;99.90
26049;DHT22;13822;51.568;5.086;2022-07-01T19:15:53;19.60;99.90
26049;DHT22;13822;51.568;5.086;2022-07-01T19:20:55;19.50;99.90
26049;DHT22;13822;51.568;5.086;2022-07-01T19:25:57;19.40;99.90
26049;DHT22;13822;51.568;5.086;2022-07-01T19:30:59;19.40;99.90
26049;DHT22;13822;51.568;5.086;2022-07-01T19:36:01;19.40;99.90
26049;DHT22;13822;51.568;5.086;2022-07-01T19:41:03;19.30;99.90
26049;DHT22;13822;51.568;5.086;2022-07-01T19:46:05;19.20;99.90
26049;DHT22;13822;51.568;5.086;2022-07-01T19:51:07;19.10;99.90
26049;DHT22;13822;51.568;5.086;2022-07-01T19:56:09;19.10;99.90
26049;DHT22;13822;51.568;5.086;2022-07-01T20:01:12;19.00;99.90
26049;DHT22;13822;51.568;5.086;2022-07-01T20:39:15;18.70;99.90
